Time;durP1;ratioP1;P1;durP2;ratioP2;P2;SDS_P1;SDS_P2;PMS_P1;PMS_P2;Temp;Humidity;BMP_temperature;BMP_pressure;BME280_temperature;BME280_humidity;BME280_pressure;Samples;Min_cycle;Max_cycle;Signal;HPM_P1;HPM_P2
2022/08/16 00:00:28;;;;;;;9.23;6.12;;;;;;;17.66;82.82;94969.79;1831780;78;21002;-68
2022/08/16 00:02:58;;;;;;;6.78;6.08;;;;;;;17.71;82.99;94969.09;1831980;78;21464;-68
2022/08/16 00:05:26;;;;;;;9.18;5.92;;;;;;;17.71;81.97;94969.09;1832128;78;20978;-69
2022/08/16 00:07:53;;;;;;;9.10;5.70;;;;;;;17.73;81.95;94974.31;1831615;78;21065;-69
2022/08/16 00:10:23;;;;;;;5.65;5.00;;;;;;;17.72;81.67;94973.94;1831844;78;21480;-68
2022/08/16 00:12:51;;;;;;;6.28;4.47;;;;;;;17.71;81.83;94969.53;1831879;78;20990;-68
2022/08/16 00:15:23;;;;;;;8.03;5.83;;;;;;;17.71;81.44;94969.53;1831950;78;21017;-68
2022/08/16 00:17:49;;;;;;;7.60;5.53;;;;;;;17.69;81.42;94971.45;1831978;78;21405;-68
2022/08/16 00:20:16;;;;;;;7.62;5.85;;;;;;;17.70;81.98;94971.35;1831714;78;21351;-68
2022/08/16 00:22:44;;;;;;;10.68;6.35;;;;;;;17.78;82.20;94968.73;1832036;78;21002;-68
2022/08/16 00:25:15;;;;;;;9.23;5.95;;;;;;;17.78;82.02;94970.06;1832022;78;20986;-68
2022/08/16 00:27:42;;;;;;;9.25;4.90;;;;;;;17.81;81.93;94969.91;1831538;78;20989;-69
2022/08/16 00:30:13;;;;;;;5.25;4.72;;;;;;;17.77;81.53;94969.69;1827428;78;20983;-69
2022/08/16 00:32:44;;;;;;;6.50;4.80;;;;;;;17.68;81.28;94965.23;1826232;78;21002;-68
2022/08/16 00:35:16;;;;;;;12.18;5.85;;;;;;;17.66;81.52;94968.94;1826007;78;21489;-68
2022/08/16 00:37:45;;;;;;;6.83;5.53;;;;;;;17.67;81.96;94973.34;1825896;78;21554;-68
2022/08/16 00:40:17;;;;;;;8.95;5.33;;;;;;;17.62;82.60;94971.41;1826206;78;21516;-68
2022/08/16 00:42:44;;;;;;;12.03;6.62;;;;;;;17.58;83.11;94973.37;1825578;78;21010;-69
2022/08/16 00:45:34;;;;;;;6.40;5.28;;;;;;;17.58;83.55;94973.37;1826114;78;21037;-69
2022/08/16 00:48:05;;;;;;;7.42;5.62;;;;;;;17.61;83.03;94973.19;1826047;78;21479;-68
2022/08/16 00:50:36;;;;;;;6.15;5.45;;;;;;;17.62;82.97;94974.08;1826085;78;20983;-68
2022/08/16 00:53:05;;;;;;;6.13;5.53;;;;;;;17.67;83.26;94971.53;1826160;78;21444;-68
2022/08/16 00:55:34;;;;;;;9.05;5.45;;;;;;;17.74;83.03;94974.24;1825122;78;20998;-68
2022/08/16 00:58:01;;;;;;;6.85;5.20;;;;;;;17.73;82.84;94978.32;1825979;78;21014;-68
2022/08/16 01:00:31;;;;;;;7.45;5.12;;;;;;;17.74;82.97;94980.91;1794553;78;21045;-68
2022/08/16 01:03:03;;;;;;;6.75;4.83;;;;;;;17.77;82.33;94980.36;1826076;78;21496;-68
2022/08/16 01:05:30;;;;;;;9.80;4.97;;;;;;;17.70;81.92;94986.02;1826132;78;21002;-68
2022/08/16 01:07:58;;;;;;;5.95;5.10;;;;;;;17.65;82.47;94985.91;1825957;78;20991;-68
2022/08/16 01:10:29;;;;;;;5.92;5.10;;;;;;;17.57;83.03;94976.14;1825691;78;21114;-68
2022/08/16 01:12:56;;;;;;;8.28;4.53;;;;;;;17.57;83.50;94977.48;1792789;78;20998;-68
2022/08/16 01:15:25;;;;;;;5.62;4.40;;;;;;;17.56;82.92;94973.92;1825927;78;21061;-68
2022/08/16 01:17:53;;;;;;;6.72;4.75;;;;;;;17.54;82.63;94971.84;1826044;78;21464;-69
2022/08/16 01:20:22;;;;;;;7.30;5.05;;;;;;;17.53;82.72;94976.28;1826071;78;20959;-69
2022/08/16 01:23:00;;;;;;;4.70;4.30;;;;;;;17.54;82.68;94969.17;1826076;78;21124;-69
2022/08/16 01:25:32;;;;;;;6.17;4.17;;;;;;;17.53;82.89;94968.77;1825799;78;21002;-68
2022/08/16 01:28:03;;;;;;;6.75;4.45;;;;;;;17.51;82.62;94971.98;1826084;78;21448;-68
2022/08/16 01:30:35;;;;;;;6.92;4.62;;;;;;;17.45;82.96;94973.20;1825786;78;21004;-68
2022/08/16 01:33:05;;;;;;;6.80;5.00;;;;;;;17.43;82.93;94972.89;1826402;78;21014;-68
2022/08/16 01:35:53;;;;;;;7.42;4.78;;;;;;;17.48;82.80;94965.50;1826092;78;21002;-69
2022/08/16 01:38:34;;;;;;;5.95;4.70;;;;;;;17.50;82.98;94965.80;1826131;78;21022;-68
2022/08/16 01:41:11;;;;;;;14.68;5.20;;;;;;;17.55;83.03;94968.22;1826072;78;21003;-68
2022/08/16 01:43:43;;;;;;;5.37;4.35;;;;;;;17.50;82.87;94967.61;1825963;78;20993;-68
2022/08/16 01:46:30;;;;;;;9.00;4.22;;;;;;;17.47;82.78;94963.79;1826082;78;21010;-68
2022/08/16 01:49:04;;;;;;;5.35;3.98;;;;;;;17.46;83.05;94965.60;1826111;78;21468;-68
2022/08/16 01:51:31;;;;;;;6.23;4.60;;;;;;;17.50;82.70;94964.94;1825992;78;21092;-69
2022/08/16 01:53:58;;;;;;;5.67;4.40;;;;;;;17.50;82.52;94964.46;1826183;78;21697;-68
2022/08/16 01:56:30;;;;;;;5.62;5.12;;;;;;;17.52;82.63;94966.58;1826281;78;20982;-68
2022/08/16 01:59:00;;;;;;;5.62;4.17;;;;;;;17.48;81.81;94963.69;1826075;78;20974;-69
2022/08/16 02:01:28;;;;;;;4.62;4.22;;;;;;;17.40;81.77;94965.07;1792925;78;21025;-68
2022/08/16 02:03:56;;;;;;;4.67;4.00;;;;;;;17.33;81.93;94967.68;1792978;78;21033;-68
2022/08/16 02:06:22;;;;;;;6.25;4.20;;;;;;;17.22;81.79;94966.47;1826226;78;20998;-69
2022/08/16 02:08:49;;;;;;;5.85;4.25;;;;;;;17.18;81.93;94972.04;1826212;78;20970;-68
2022/08/16 02:11:16;;;;;;;7.53;4.47;;;;;;;17.17;82.17;94971.19;1826143;78;21484;-68
2022/08/16 02:13:44;;;;;;;6.95;4.70;;;;;;;17.17;82.41;94974.33;1825985;78;21512;-68
2022/08/16 02:16:13;;;;;;;4.83;4.15;;;;;;;17.18;82.11;94977.38;1826390;78;21076;-68
2022/08/16 02:18:40;;;;;;;6.42;5.03;;;;;;;17.17;82.21;94974.33;1825792;78;21076;-68
2022/08/16 02:21:10;;;;;;;4.85;4.30;;;;;;;17.12;82.50;94975.91;1826148;78;21009;-68
2022/08/16 02:23:38;;;;;;;9.35;4.60;;;;;;;17.13;82.65;94969.63;1826260;78;21037;-68
2022/08/16 02:26:06;;;;;;;5.55;4.50;;;;;;;17.21;83.12;94971.87;1826064;78;20934;-68
2022/08/16 02:28:33;;;;;;;6.33;4.67;;;;;;;17.26;83.20;94971.14;1825815;78;20991;-68
2022/08/16 02:31:05;;;;;;;5.35;4.47;;;;;;;17.27;82.94;94971.08;1821676;78;20995;-68
2022/08/16 02:33:32;;;;;;;5.95;3.92;;;;;;;17.24;82.89;94968.58;1821210;79;21551;-68
2022/08/16 02:35:59;;;;;;;6.97;4.17;;;;;;;17.20;82.35;94972.34;1821403;79;21533;-68
2022/08/16 02:38:29;;;;;;;5.47;4.00;;;;;;;17.11;82.06;94971.53;1821395;79;21000;-68
2022/08/16 02:40:57;;;;;;;5.67;4.72;;;;;;;17.03;82.41;94978.61;1821273;79;20994;-68
2022/08/16 02:43:27;;;;;;;6.58;4.85;;;;;;;17.00;83.02;94977.42;1821175;79;21483;-68
2022/08/16 02:45:57;;;;;;;8.28;5.33;;;;;;;17.03;83.55;94976.39;1792845;79;20994;-68
2022/08/16 02:48:27;;;;;;;8.73;4.83;;;;;;;17.09;83.89;94974.27;1821320;79;20978;-68
2022/08/16 02:50:53;;;;;;;5.58;4.83;;;;;;;17.12;83.25;94974.58;1821266;79;21029;-68
2022/08/16 02:53:20;;;;;;;6.72;4.95;;;;;;;17.13;83.31;94975.43;1821306;79;21488;-68
2022/08/16 02:55:48;;;;;;;5.33;4.15;;;;;;;17.13;83.11;94981.62;1821098;79;21034;-68
2022/08/16 02:58:14;;;;;;;6.12;4.22;;;;;;;17.14;82.97;94979.36;1821206;79;21018;-68
2022/08/16 03:00:41;;;;;;;8.30;5.17;;;;;;;17.15;82.98;94981.55;1821355;79;21460;-68
2022/08/16 03:03:09;;;;;;;5.90;4.50;;;;;;;17.16;83.01;94982.81;1821246;79;21011;-68
2022/08/16 03:05:35;;;;;;;5.37;4.33;;;;;;;17.22;83.23;94986.46;1821372;79;21039;-68
2022/08/16 03:08:03;;;;;;;6.90;4.50;;;;;;;17.27;83.02;94984.41;1821509;79;21003;-68
2022/08/16 03:10:32;;;;;;;4.75;3.92;;;;;;;17.30;82.88;94988.23;1820576;79;21014;-68
2022/08/16 03:12:58;;;;;;;8.40;4.83;;;;;;;17.26;82.23;94982.70;1821086;79;20997;-68
2022/08/16 03:15:27;;;;;;;5.45;4.20;;;;;;;17.16;82.19;94983.25;1821384;79;21026;-68
2022/08/16 03:17:55;;;;;;;7.37;4.50;;;;;;;17.15;82.67;94986.40;1821300;79;20947;-69
2022/08/16 03:20:23;;;;;;;7.75;4.58;;;;;;;17.10;82.78;94991.12;1821219;79;21543;-68
2022/08/16 03:22:50;;;;;;;4.95;4.45;;;;;;;17.12;82.63;94996.38;1821352;79;20995;-69
2022/08/16 03:25:17;;;;;;;5.45;4.65;;;;;;;17.15;83.10;94998.39;1820982;79;21090;-69
2022/08/16 03:27:48;;;;;;;6.87;4.70;;;;;;;17.14;82.81;94991.83;1820361;79;21014;-68
2022/08/16 03:30:21;;;;;;;5.45;4.80;;;;;;;17.11;83.29;94999.52;1794690;78;21022;-68
2022/08/16 03:32:52;;;;;;;7.58;5.05;;;;;;;17.11;83.16;94998.64;1824349;78;20971;-68
2022/08/16 03:35:25;;;;;;;5.75;4.33;;;;;;;17.16;83.22;95003.25;1826270;78;20967;-69
2022/08/16 03:37:56;;;;;;;6.75;4.40;;;;;;;17.12;83.29;95001.23;1825994;78;21010;-68
2022/08/16 03:40:25;;;;;;;4.97;3.92;;;;;;;17.09;83.24;94999.59;1793269;78;21026;-68
2022/08/16 03:42:52;;;;;;;6.87;5.00;;;;;;;17.08;83.12;94997.88;1826154;78;21062;-68
2022/08/16 03:45:20;;;;;;;6.45;4.42;;;;;;;17.09;83.12;95001.41;1826002;78;21026;-68
2022/08/16 03:47:47;;;;;;;4.60;3.90;;;;;;;17.08;83.33;95002.33;1826132;78;21066;-69
2022/08/16 03:50:14;;;;;;;5.28;4.70;;;;;;;17.06;82.83;95000.24;1826200;78;21042;-69
2022/08/16 03:52:42;;;;;;;5.47;4.37;;;;;;;17.04;83.18;95002.13;1826099;78;21504;-68
2022/08/16 03:55:11;;;;;;;6.42;4.80;;;;;;;17.04;82.97;95007.45;1826120;78;21030;-69
2022/08/16 03:57:38;;;;;;;5.60;4.25;;;;;;;17.00;83.26;95008.55;1825880;78;21002;-68
2022/08/16 04:00:12;;;;;;;6.28;4.62;;;;;;;17.03;83.21;95010.59;1826001;78;21508;-68
2022/08/16 04:02:42;;;;;;;6.15;4.72;;;;;;;17.01;83.17;95012.92;1826161;78;21002;-69
2022/08/16 04:05:14;;;;;;;6.45;4.60;;;;;;;16.99;83.62;95010.36;1825764;78;21528;-69
2022/08/16 04:07:41;;;;;;;5.72;4.33;;;;;;;17.09;84.07;95012.92;1826078;78;20997;-69
2022/08/16 04:10:11;;;;;;;6.60;4.58;;;;;;;17.16;84.11;95009.47;1826249;78;21479;-69
2022/08/16 04:12:40;;;;;;;4.95;4.45;;;;;;;17.16;83.36;95008.13;1826124;78;21025;-69
2022/08/16 04:15:12;;;;;;;8.03;4.40;;;;;;;17.13;83.05;95008.27;1826038;78;20987;-69
2022/08/16 04:17:41;;;;;;;6.47;4.62;;;;;;;17.11;83.16;95012.85;1825613;78;21014;-69
2022/08/16 04:20:10;;;;;;;5.67;3.75;;;;;;;17.11;83.18;95007.97;1826046;78;21424;-69
2022/08/16 04:22:37;;;;;;;4.75;4.20;;;;;;;17.11;83.26;94999.97;1826257;78;21001;-68
2022/08/16 04:25:06;;;;;;;5.50;4.67;;;;;;;17.07;83.29;95002.80;1826155;78;20963;-68
2022/08/16 04:27:34;;;;;;;6.17;5.00;;;;;;;17.15;83.98;95007.73;1825528;78;21500;-69
2022/08/16 04:30:10;;;;;;;7.35;5.22;;;;;;;17.19;83.72;94999.97;1825961;78;21480;-69
2022/08/16 04:32:40;;;;;;;7.50;5.55;;;;;;;17.25;83.66;95004.09;1824557;78;21006;-69
2022/08/16 04:35:12;;;;;;;6.47;5.58;;;;;;;17.30;83.66;95001.56;1826267;78;21451;-69
2022/08/16 04:37:39;;;;;;;7.22;5.20;;;;;;;17.34;83.58;95006.27;1826122;78;20998;-68
2022/08/16 04:40:10;;;;;;;6.35;5.40;;;;;;;17.41;83.55;95003.66;1824833;78;21017;-69
2022/08/16 04:42:39;;;;;;;7.47;5.22;;;;;;;17.42;83.32;95007.19;1826232;78;21066;-68
2022/08/16 04:45:09;;;;;;;6.75;5.20;;;;;;;17.44;83.01;95006.64;1826055;78;20994;-69
2022/08/16 04:47:36;;;;;;;5.15;4.65;;;;;;;17.42;82.60;95005.85;1826121;78;21491;-68
2022/08/16 04:50:10;;;;;;;6.05;4.40;;;;;;;17.40;83.37;95011.73;1825468;78;21070;-69
2022/08/16 04:52:38;;;;;;;5.97;5.03;;;;;;;17.36;82.92;95007.50;1826146;78;21018;-68
2022/08/16 04:55:12;;;;;;;7.55;4.90;;;;;;;17.32;83.55;95022.82;1826114;78;21448;-68
2022/08/16 04:57:40;;;;;;;12.28;4.92;;;;;;;17.38;83.93;95018.47;1826339;78;20958;-68
2022/08/16 05:00:15;;;;;;;6.35;4.92;;;;;;;17.46;83.78;95024.27;1825534;78;21078;-68
2022/08/16 05:02:42;;;;;;;7.37;5.62;;;;;;;17.54;83.84;95031.86;1826163;78;21002;-68
2022/08/16 05:05:11;;;;;;;7.67;5.78;;;;;;;17.59;83.97;95031.13;1826196;78;20989;-69
2022/08/16 05:07:38;;;;;;;6.40;5.60;;;;;;;17.66;83.90;95035.16;1793029;78;21512;-68
2022/08/16 05:10:08;;;;;;;8.33;5.12;;;;;;;17.69;83.62;95033.67;1826480;78;21002;-69
2022/08/16 05:12:37;;;;;;;6.37;5.17;;;;;;;17.71;83.11;95030.45;1826177;78;21529;-69
2022/08/16 05:15:07;;;;;;;6.87;5.55;;;;;;;17.67;82.82;95031.56;1826009;78;21018;-69
2022/08/16 05:17:35;;;;;;;7.05;5.47;;;;;;;17.70;83.42;95034.05;1792857;78;21053;-68
2022/08/16 05:20:07;;;;;;;9.18;4.95;;;;;;;17.74;83.32;95032.95;1794909;78;21006;-68
2022/08/16 05:22:37;;;;;;;9.90;6.80;;;;;;;17.78;83.08;95034.95;1825635;78;21002;-69
2022/08/16 05:25:07;;;;;;;10.28;5.53;;;;;;;17.74;83.07;95036.95;1826100;78;21143;-68
2022/08/16 05:27:34;;;;;;;10.55;6.15;;;;;;;17.73;83.23;95039.69;1826102;78;21472;-69
2022/08/16 05:30:01;;;;;;;6.37;5.50;;;;;;;17.71;83.21;95029.13;1793622;78;21480;-69
2022/08/16 05:32:28;;;;;;;10.40;6.08;;;;;;;17.70;83.30;95023.37;1821265;79;21060;-69
2022/08/16 05:34:55;;;;;;;7.30;5.65;;;;;;;17.79;83.81;95018.02;1821276;79;21026;-69
2022/08/16 05:37:23;;;;;;;6.15;5.20;;;;;;;17.89;83.70;95022.37;1821183;79;21098;-68
2022/08/16 05:39:51;;;;;;;8.83;5.97;;;;;;;17.99;83.72;95019.56;1820913;79;21082;-68
2022/08/16 05:42:18;;;;;;;7.50;5.72;;;;;;;18.07;83.55;95018.67;1821150;79;21034;-68
2022/08/16 05:44:45;;;;;;;7.95;5.37;;;;;;;18.13;83.11;95015.64;1820585;79;21098;-68
2022/08/16 05:47:12;;;;;;;8.80;5.60;;;;;;;18.20;82.92;95017.50;1820896;79;20982;-68
2022/08/16 05:49:39;;;;;;;6.22;5.62;;;;;;;18.23;82.64;95016.45;1821200;79;20990;-68
2022/08/16 05:52:10;;;;;;;7.40;5.50;;;;;;;18.28;82.66;95017.05;1820997;79;21018;-68
2022/08/16 05:54:38;;;;;;;7.80;5.85;;;;;;;18.21;81.71;95013.86;1792314;79;20986;-68
2022/08/16 05:57:05;;;;;;;9.58;5.80;;;;;;;18.22;82.21;95018.27;1821124;79;22268;-69
2022/08/16 05:59:32;;;;;;;8.50;5.72;;;;;;;18.23;82.23;95023.13;1821156;79;20982;-69
2022/08/16 06:01:59;;;;;;;8.28;5.12;;;;;;;18.19;81.70;95023.77;1821463;79;21038;-69
2022/08/16 06:04:27;;;;;;;7.33;5.95;;;;;;;18.14;81.68;95024.50;1820101;79;20983;-69
2022/08/16 06:06:55;;;;;;;7.65;5.72;;;;;;;18.11;82.18;95020.20;1821281;79;21022;-69
2022/08/16 06:09:24;;;;;;;8.38;6.10;;;;;;;18.16;82.42;95023.47;1820910;79;21082;-69
2022/08/16 06:11:51;;;;;;;7.35;5.22;;;;;;;18.21;82.50;95016.53;1821113;79;21527;-69
2022/08/16 06:14:19;;;;;;;6.62;5.92;;;;;;;18.29;82.26;95019.61;1821409;79;21042;-68
2022/08/16 06:16:46;;;;;;;8.20;5.75;;;;;;;18.34;82.72;95012.67;1821321;79;21440;-69
2022/08/16 06:19:12;;;;;;;6.60;5.80;;;;;;;18.40;82.33;95019.49;1820897;79;21445;-69
2022/08/16 06:21:41;;;;;;;7.35;5.83;;;;;;;18.44;82.88;95016.53;1820791;79;21463;-69
2022/08/16 06:24:08;;;;;;;8.58;6.50;;;;;;;18.50;83.00;95013.52;1821292;79;21002;-68
2022/08/16 06:26:35;;;;;;;7.42;5.75;;;;;;;18.60;83.18;95017.36;1821191;79;20962;-69
2022/08/16 06:29:02;;;;;;;9.20;5.83;;;;;;;18.63;82.47;95018.13;1820757;79;21021;-68
2022/08/16 06:31:33;;;;;;;10.50;6.60;;;;;;;18.61;82.40;95015.54;1824441;78;21006;-69
2022/08/16 06:34:01;;;;;;;9.33;6.03;;;;;;;18.67;82.75;95025.88;1825966;78;21006;-69
2022/08/16 06:36:29;;;;;;;8.18;6.08;;;;;;;18.73;82.85;95029.99;1825566;78;21122;-69
2022/08/16 06:39:16;;;;;;;9.73;6.42;;;;;;;18.77;82.85;95035.55;1825750;78;20975;-69
2022/08/16 06:41:57;;;;;;;10.50;6.12;;;;;;;18.82;82.45;95042.81;1826060;78;21011;-69
2022/08/16 06:44:42;;;;;;;9.70;6.47;;;;;;;18.81;82.18;95054.48;1825702;78;21476;-69
2022/08/16 06:47:17;;;;;;;14.50;6.50;;;;;;;18.80;82.53;95060.30;1823763;78;20981;-69
2022/08/16 06:49:44;;;;;;;8.55;5.80;;;;;;;18.83;82.65;95073.11;1826158;78;20970;-69
2022/08/16 06:52:12;;;;;;;11.95;6.05;;;;;;;18.81;82.22;95066.02;1826214;78;21010;-69
2022/08/16 06:54:39;;;;;;;9.30;7.00;;;;;;;18.78;82.62;95072.03;1825899;78;20987;-68
2022/08/16 06:57:06;;;;;;;10.82;6.67;;;;;;;18.74;82.85;95083.81;1793452;78;20982;-68
2022/08/16 06:59:33;;;;;;;17.05;7.72;;;;;;;18.76;83.17;95091.30;1825771;78;21002;-68
2022/08/16 07:02:01;;;;;;;15.70;8.85;;;;;;;18.75;83.29;95085.55;1826137;78;21017;-69
2022/08/16 07:04:28;;;;;;;20.27;10.30;;;;;;;18.76;83.25;95073.45;1826126;78;21034;-68
2022/08/16 07:06:55;;;;;;;18.30;10.32;;;;;;;18.79;83.30;95079.09;1826183;78;21010;-68
2022/08/16 07:09:22;;;;;;;22.13;11.50;;;;;;;18.80;83.19;95077.67;1826029;78;21075;-68
2022/08/16 07:11:49;;;;;;;18.50;11.20;;;;;;;18.78;83.04;95070.70;1826198;78;21037;-69
2022/08/16 07:14:18;;;;;;;17.77;10.55;;;;;;;18.74;83.12;95070.45;1824759;78;21065;-68
2022/08/16 07:16:46;;;;;;;13.65;8.35;;;;;;;18.71;83.13;95081.33;1825669;78;21018;-69
2022/08/16 07:19:15;;;;;;;9.93;6.35;;;;;;;18.66;83.00;95072.72;1793328;78;21319;-69
2022/08/16 07:21:42;;;;;;;12.43;7.60;;;;;;;18.52;82.60;95077.52;1826034;78;21030;-69
2022/08/16 07:24:10;;;;;;;13.03;8.03;;;;;;;18.46;83.47;95077.41;1826290;78;21005;-69
2022/08/16 07:26:39;;;;;;;11.15;6.28;;;;;;;18.46;83.97;95070.73;1826279;78;21054;-69
2022/08/16 07:29:05;;;;;;;9.05;6.33;;;;;;;18.49;83.64;95064.34;1826004;78;21495;-69
2022/08/16 07:31:33;;;;;;;10.08;6.25;;;;;;;18.51;83.85;95064.64;1828524;78;21511;-68
2022/08/16 07:34:00;;;;;;;10.93;7.17;;;;;;;18.56;83.96;95069.24;1831957;78;21479;-69
2022/08/16 07:36:29;;;;;;;10.95;6.42;;;;;;;18.54;83.83;95072.47;1831729;78;21006;-69
2022/08/16 07:38:56;;;;;;;7.80;6.22;;;;;;;18.52;84.54;95074.40;1831928;78;20982;-69
2022/08/16 07:41:24;;;;;;;10.35;6.10;;;;;;;18.57;85.03;95072.31;1832153;78;21550;-69
2022/08/16 07:43:53;;;;;;;9.73;6.40;;;;;;;18.67;85.32;95068.64;1831929;78;20955;-68
2022/08/16 07:46:20;;;;;;;7.55;6.30;;;;;;;18.75;84.86;95058.83;1831494;78;21615;-68
2022/08/16 07:48:47;;;;;;;8.73;6.37;;;;;;;18.80;85.04;95064.31;1831981;78;20994;-69
2022/08/16 07:51:15;;;;;;;9.28;6.55;;;;;;;18.83;85.08;95065.94;1831537;78;21064;-69
2022/08/16 07:53:44;;;;;;;7.03;5.75;;;;;;;18.92;85.06;95065.38;1832097;78;21013;-69
2022/08/16 07:56:12;;;;;;;9.83;6.25;;;;;;;19.00;84.20;95067.62;1831692;78;21441;-69
2022/08/16 07:58:39;;;;;;;6.30;5.22;;;;;;;19.02;83.45;95077.72;1831949;78;21077;-68
2022/08/16 08:01:12;;;;;;;6.95;4.53;;;;;;;18.98;83.19;95073.53;1831486;78;21507;-69
2022/08/16 08:03:46;;;;;;;5.40;4.90;;;;;;;18.92;80.49;95080.56;1831788;78;21440;-69
2022/08/16 08:06:13;;;;;;;4.33;3.92;;;;;;;18.93;81.77;95082.30;1832091;78;21452;-68
2022/08/16 08:08:41;;;;;;;9.43;4.67;;;;;;;18.96;81.68;95092.80;1831954;78;20946;-68
2022/08/16 08:11:08;;;;;;;9.88;5.05;;;;;;;18.93;81.95;95092.51;1831829;78;20990;-68
2022/08/16 08:13:36;;;;;;;5.67;4.87;;;;;;;19.00;82.52;95107.72;1831619;78;21544;-69
2022/08/16 08:16:03;;;;;;;6.00;4.62;;;;;;;19.05;82.81;95107.42;1831765;78;21021;-68
2022/08/16 08:18:30;;;;;;;4.83;4.22;;;;;;;19.07;82.70;95111.72;1831512;78;21018;-68
2022/08/16 08:20:57;;;;;;;5.60;4.10;;;;;;;19.01;80.71;95109.43;1832185;78;20974;-68
2022/08/16 08:23:24;;;;;;;4.78;3.60;;;;;;;18.92;80.53;95124.19;1831860;78;21026;-68
2022/08/16 08:25:51;;;;;;;4.60;3.40;;;;;;;18.78;79.88;95124.16;1831814;78;21074;-68
2022/08/16 08:28:18;;;;;;;5.78;3.75;;;;;;;18.66;79.75;95116.81;1832116;78;21037;-69
2022/08/16 08:30:46;;;;;;;4.40;3.62;;;;;;;18.57;80.41;95116.85;1831289;78;21001;-68
2022/08/16 08:33:13;;;;;;;4.85;3.27;;;;;;;18.36;80.64;95106.94;1820889;79;20982;-69
2022/08/16 08:35:42;;;;;;;5.55;3.98;;;;;;;18.34;81.14;95107.04;1821152;79;20987;-68
2022/08/16 08:38:09;;;;;;;6.00;3.80;;;;;;;18.39;81.65;95104.08;1821040;79;21030;-68
2022/08/16 08:40:38;;;;;;;4.47;3.92;;;;;;;18.41;82.47;95108.02;1820364;79;21051;-68
2022/08/16 08:43:09;;;;;;;5.42;3.90;;;;;;;18.47;83.00;95099.19;1821304;79;20963;-68
2022/08/16 08:45:34;;;;;;;4.47;3.80;;;;;;;18.53;82.35;95104.16;1820945;79;20994;-68
2022/08/16 08:48:01;;;;;;;6.10;3.52;;;;;;;18.51;81.03;95097.18;1821301;79;20998;-68
2022/08/16 08:50:29;;;;;;;4.92;3.05;;;;;;;18.55;80.88;95099.59;1820947;79;20963;-68
2022/08/16 08:52:56;;;;;;;3.83;3.10;;;;;;;18.59;80.33;95098.92;1821083;79;21058;-68
2022/08/16 08:55:25;;;;;;;3.30;3.00;;;;;;;18.63;79.72;95104.97;1821516;79;21042;-68
2022/08/16 08:57:52;;;;;;;3.12;2.72;;;;;;;18.61;78.97;95099.70;1821204;79;20986;-68
2022/08/16 09:00:27;;;;;;;3.62;3.25;;;;;;;18.60;78.15;95095.33;1819280;79;21054;-68
2022/08/16 09:02:56;;;;;;;3.52;3.05;;;;;;;18.59;78.28;95095.77;1821323;79;21037;-68
2022/08/16 09:05:25;;;;;;;3.85;3.27;;;;;;;18.64;78.60;95103.53;1820907;79;21049;-68
2022/08/16 09:07:52;;;;;;;3.50;3.20;;;;;;;18.72;78.75;95097.73;1821062;79;21497;-68
2022/08/16 09:10:21;;;;;;;4.08;3.67;;;;;;;18.75;78.47;95104.27;1821187;79;21000;-68
2022/08/16 09:12:49;;;;;;;6.55;4.30;;;;;;;18.83;78.77;95099.84;1821250;79;21026;-68
2022/08/16 09:15:19;;;;;;;6.00;4.12;;;;;;;18.92;78.31;95099.27;1819034;79;21018;-68
2022/08/16 09:17:46;;;;;;;6.65;4.22;;;;;;;19.03;79.05;95101.70;1821357;79;21516;-68
2022/08/16 09:20:14;;;;;;;5.08;4.40;;;;;;;19.21;79.76;95094.38;1821338;79;21481;-69
2022/08/16 09:22:42;;;;;;;4.17;3.77;;;;;;;19.37;80.47;95096.98;1821252;79;20990;-68
2022/08/16 09:25:11;;;;;;;4.17;3.75;;;;;;;19.50;79.87;95097.08;1821266;79;20963;-68
2022/08/16 09:27:37;;;;;;;4.35;3.95;;;;;;;19.63;80.05;95091.83;1821169;79;20983;-69
2022/08/16 09:30:07;;;;;;;4.75;3.75;;;;;;;19.79;80.56;95098.48;1792612;79;20954;-68
2022/08/16 09:32:34;;;;;;;5.45;3.70;;;;;;;19.92;80.36;95087.37;1824426;78;21523;-69
2022/08/16 09:35:02;;;;;;;4.28;3.67;;;;;;;20.00;80.23;95095.77;1826041;78;20939;-69
2022/08/16 09:37:31;;;;;;;3.95;3.50;;;;;;;20.12;79.20;95089.27;1826168;78;20998;-69
2022/08/16 09:39:58;;;;;;;3.65;3.05;;;;;;;20.26;78.90;95093.23;1826110;78;20958;-69
2022/08/16 09:42:28;;;;;;;3.75;3.45;;;;;;;20.34;77.47;95090.94;1825573;78;21511;-69
2022/08/16 09:44:55;;;;;;;5.92;3.10;;;;;;;20.46;78.35;95094.61;1825315;78;21456;-69
2022/08/16 09:47:22;;;;;;;4.15;3.20;;;;;;;20.58;77.54;95095.67;1825922;78;21005;-69
2022/08/16 09:49:49;;;;;;;3.98;3.52;;;;;;;20.62;75.61;95095.38;1826352;78;20962;-69
2022/08/16 09:52:16;;;;;;;5.10;3.45;;;;;;;20.68;75.40;95088.73;1826386;78;21492;-69
2022/08/16 09:54:42;;;;;;;3.40;3.10;;;;;;;20.79;75.30;95089.35;1826195;78;21010;-69
2022/08/16 09:57:09;;;;;;;3.05;2.75;;;;;;;20.87;74.57;95091.91;1825821;78;20979;-69
2022/08/16 09:59:36;;;;;;;3.42;3.12;;;;;;;20.90;72.15;95081.47;1826219;78;21066;-69
2022/08/16 10:02:03;;;;;;;4.28;3.05;;;;;;;20.98;72.59;95086.31;1826232;78;20978;-69
2022/08/16 10:04:30;;;;;;;3.50;3.20;;;;;;;20.94;69.96;95085.64;1826050;78;21512;-69
2022/08/16 10:06:57;;;;;;;3.50;3.20;;;;;;;20.93;71.36;95087.95;1826341;78;21033;-69
2022/08/16 10:09:27;;;;;;;4.10;3.70;;;;;;;20.97;70.53;95078.75;1794705;78;21612;-69
2022/08/16 10:14:39;;;;;;;3.50;3.20;;;;;;;21.02;68.26;95071.25;1826397;78;20967;-69
2022/08/16 10:17:06;;;;;;;3.70;3.40;;;;;;;21.13;68.31;95074.05;1826024;78;20999;-69
2022/08/16 10:19:32;;;;;;;3.65;3.33;;;;;;;21.33;69.71;95075.36;1826436;78;21436;-69
2022/08/16 10:21:59;;;;;;;3.22;2.90;;;;;;;21.58;70.16;95073.19;1826513;78;20963;-69
2022/08/16 10:24:26;;;;;;;3.22;2.92;;;;;;;21.74;68.16;95070.27;1826148;78;21009;-69
2022/08/16 10:26:56;;;;;;;3.35;3.05;;;;;;;21.91;67.58;95068.23;1826323;78;21452;-68
2022/08/16 10:29:21;;;;;;;3.80;3.20;;;;;;;22.12;65.99;95067.16;1826378;78;21021;-68
2022/08/16 10:31:48;;;;;;;8.40;7.37;;;;;;;22.35;64.61;95065.05;1825687;78;21532;-69
2022/08/16 10:34:15;;;;;;;4.47;3.80;;;;;;;22.67;65.96;95065.81;1826353;78;21463;-69
2022/08/16 10:36:42;;;;;;;5.35;4.83;;;;;;;22.99;60.91;95054.50;1826316;78;21030;-69
2022/08/16 10:39:09;;;;;;;5.05;4.55;;;;;;;23.33;64.84;95048.70;1793027;78;20993;-69
2022/08/16 10:41:36;;;;;;;8.35;7.28;;;;;;;23.75;62.40;95045.84;1826393;78;20995;-69
2022/08/16 10:44:03;;;;;;;4.92;4.05;;;;;;;24.11;60.63;95045.22;1826290;78;21014;-69
2022/08/16 10:46:30;;;;;;;4.97;4.25;;;;;;;24.47;61.73;95047.77;1825621;78;20986;-69
2022/08/16 10:48:57;;;;;;;6.15;4.10;;;;;;;24.70;58.22;95041.34;1826407;78;21013;-69
2022/08/16 10:51:24;;;;;;;8.80;4.30;;;;;;;24.99;55.86;95040.72;1825942;78;21022;-69
2022/08/16 10:53:51;;;;;;;5.05;4.62;;;;;;;25.33;59.87;95030.64;1826151;78;20982;-69
2022/08/16 10:56:17;;;;;;;5.15;4.53;;;;;;;25.80;58.38;95039.14;1825998;78;21030;-69
2022/08/16 10:58:44;;;;;;;5.37;4.55;;;;;;;26.19;59.65;95033.94;1826106;78;21001;-69
2022/08/16 11:01:14;;;;;;;4.30;3.90;;;;;;;26.44;57.81;95034.44;1826370;78;21002;-69
2022/08/16 11:03:40;;;;;;;6.03;4.10;;;;;;;26.43;53.25;95034.91;1826133;78;21081;-69
2022/08/16 11:06:08;;;;;;;7.00;3.85;;;;;;;26.39;51.52;95033.50;1826145;78;21476;-69
2022/08/16 11:08:37;;;;;;;4.65;3.67;;;;;;;26.42;51.09;95026.95;1826161;78;20994;-69
2022/08/16 11:11:07;;;;;;;4.87;4.35;;;;;;;26.61;52.56;95015.33;1826588;78;20971;-69
2022/08/16 11:13:34;;;;;;;3.87;3.58;;;;;;;26.65;52.81;95014.92;1825949;78;20977;-69
2022/08/16 11:16:01;;;;;;;4.20;3.40;;;;;;;26.66;54.34;95015.30;1826003;78;20966;-69
2022/08/16 11:18:28;;;;;;;3.75;3.42;;;;;;;26.42;49.14;95014.78;1825946;78;21054;-69
2022/08/16 11:20:57;;;;;;;4.00;3.47;;;;;;;26.28;50.91;95013.31;1826458;78;21428;-69
2022/08/16 11:23:26;;;;;;;3.45;3.15;;;;;;;26.40;50.41;95008.66;1826199;78;21073;-69
2022/08/16 11:25:54;;;;;;;3.52;3.10;;;;;;;26.64;52.21;95006.45;1826203;78;20974;-69
2022/08/16 11:28:22;;;;;;;3.65;3.35;;;;;;;26.91;51.79;95008.47;1826072;78;20998;-69
2022/08/16 11:30:48;;;;;;;4.53;3.50;;;;;;;26.96;46.49;95000.77;1826261;78;21471;-69
2022/08/16 11:33:15;;;;;;;3.40;3.10;;;;;;;27.02;49.47;95003.91;1826070;78;21551;-69
2022/08/16 11:35:42;;;;;;;4.12;3.70;;;;;;;27.21;49.57;95003.90;1826149;78;21014;-69
2022/08/16 11:38:14;;;;;;;3.80;3.40;;;;;;;27.34;48.14;95001.77;1826377;78;21029;-69
2022/08/16 11:40:47;;;;;;;4.28;3.87;;;;;;;27.66;48.69;94999.17;1826552;78;21405;-68